Time;durP1;ratioP1;P1;durP2;ratioP2;P2;SDS_P1;SDS_P2;PMS_P1;PMS_P2;Temp;Humidity;BMP_temperature;BMP_pressure;BME280_temperature;BME280_humidity;BME280_pressure;Samples;Min_cycle;Max_cycle;Signal;HPM_P1;HPM_P2
2022/11/27 00:01:42;;;;;;;14.77;8.20;;;;;;;18.39;37.38;101745.25;5014143;28;20049;-56
2022/11/27 00:04:10;;;;;;;16.15;8.52;;;;;;;18.37;37.26;101747.34;5013981;28;20109;-56
2022/11/27 00:06:39;;;;;;;18.20;8.30;;;;;;;18.09;38.24;101753.47;5014421;28;20029;-55
2022/11/27 00:09:09;;;;;;;16.85;8.23;;;;;;;18.03;38.18;101757.94;5013747;28;20025;-55
2022/11/27 00:11:38;;;;;;;16.95;8.55;;;;;;;17.87;38.99;101753.19;5014149;28;20034;-55
2022/11/27 00:14:05;;;;;;;14.80;8.10;;;;;;;17.63;39.54;101755.81;5013808;28;20054;-55
2022/11/27 00:16:32;;;;;;;16.20;9.32;;;;;;;17.46;39.92;101754.81;5014056;28;20037;-55
2022/11/27 00:18:58;;;;;;;16.20;8.75;;;;;;;17.40;39.85;101753.84;5013594;28;20036;-55
2022/11/27 00:21:27;;;;;;;15.27;8.75;;;;;;;17.28;39.71;101749.44;5013712;28;20437;-55
2022/11/27 00:23:55;;;;;;;16.35;8.02;;;;;;;17.14;39.98;101743.34;5013625;28;20030;-56
2022/11/27 00:26:22;;;;;;;14.18;8.00;;;;;;;17.18;39.73;101743.75;5013832;28;20021;-55
2022/11/27 00:28:49;;;;;;;17.10;8.93;;;;;;;16.82;40.61;101745.41;5013652;28;20112;-56
2022/11/27 00:31:21;;;;;;;15.75;8.50;;;;;;;16.93;40.86;101738.41;5013529;28;20034;-56
2022/11/27 00:33:47;;;;;;;20.10;9.75;;;;;;;17.01;40.54;101748.94;5013455;28;20412;-55
2022/11/27 00:36:14;;;;;;;13.98;8.73;;;;;;;16.59;41.71;101746.03;5013329;28;20030;-55
2022/11/27 00:38:41;;;;;;;15.57;8.45;;;;;;;16.74;41.57;101743.00;5013272;28;20033;-55
2022/11/27 00:41:22;;;;;;;14.73;7.75;;;;;;;16.67;42.14;101747.63;5013734;28;20049;-55
2022/11/27 00:43:48;;;;;;;17.15;8.57;;;;;;;16.81;42.20;101743.75;5013519;28;20033;-56
2022/11/27 00:46:17;;;;;;;17.80;8.38;;;;;;;16.54;42.66;101743.19;5027349;28;20017;-56
2022/11/27 00:48:44;;;;;;;15.77;8.02;;;;;;;16.41;43.07;101744.13;5030837;28;20091;-56
2022/11/27 00:51:14;;;;;;;17.48;8.32;;;;;;;16.32;43.08;101745.47;5032470;28;20051;-56
2022/11/27 00:53:40;;;;;;;16.45;8.77;;;;;;;16.20;43.31;101742.66;5032019;28;20048;-56
2022/11/27 00:56:07;;;;;;;15.05;8.48;;;;;;;16.16;43.56;101729.81;5032701;28;20091;-57
2022/11/27 00:58:33;;;;;;;16.50;8.68;;;;;;;16.23;44.30;101736.84;5032594;28;20041;-57
2022/11/27 01:01:04;;;;;;;14.20;8.02;;;;;;;16.09;44.18;101738.81;5032862;28;20057;-57
2022/11/27 01:03:32;;;;;;;14.98;7.68;;;;;;;16.06;44.80;101741.16;5038058;28;20026;-57
2022/11/27 01:06:07;;;;;;;14.75;9.48;;;;;;;15.87;44.93;101745.63;5029583;28;20044;-57
2022/11/27 01:08:33;;;;;;;;;;;;;;;16.02;45.03;101746.16;5032854;28;20030;-57
2022/11/27 01:11:00;;;;;;;22.15;13.43;;;;;;;15.78;45.07;101744.25;5032459;28;19913;-56
2022/11/27 01:13:28;;;;;;;23.95;14.90;;;;;;;15.57;45.17;101748.09;5032687;28;20029;-58
2022/11/27 01:16:03;;;;;;;20.33;13.63;;;;;;;15.50;45.31;101748.13;5034527;28;20502;-57
2022/11/27 01:18:30;;;;;;;20.13;12.52;;;;;;;15.53;45.28;101746.88;5052298;28;20025;-57
2022/11/27 01:20:56;;;;;;;22.25;11.82;;;;;;;15.42;45.35;101752.94;5046629;28;20094;-57
2022/11/27 01:23:22;;;;;;;18.33;12.05;;;;;;;15.36;45.50;101751.94;5032374;28;20402;-57
2022/11/27 01:25:49;;;;;;;17.10;10.55;;;;;;;15.24;45.36;101746.41;5033800;28;20108;-57
2022/11/27 01:28:16;;;;;;;17.52;10.68;;;;;;;15.19;45.50;101742.69;5044009;28;20414;-51
2022/11/27 01:30:42;;;;;;;17.92;10.65;;;;;;;15.01;45.68;101751.47;5025262;28;20033;-48
2022/11/27 01:33:08;;;;;;;26.05;12.23;;;;;;;14.89;45.58;101754.00;5031988;28;20049;-52
2022/11/27 01:35:35;;;;;;;27.27;14.60;;;;;;;14.79;45.30;101751.75;5025996;28;20068;-56
2022/11/27 01:38:01;;;;;;;25.30;14.18;;;;;;;14.75;45.27;101739.72;5031454;28;20079;-56
2022/11/27 01:40:27;;;;;;;24.83;13.15;;;;;;;14.73;45.31;101751.78;5031850;28;20120;-56
2022/11/27 01:42:53;;;;;;;28.08;14.18;;;;;;;14.63;45.54;101751.38;5030918;28;20037;-56
2022/11/27 01:45:21;;;;;;;29.10;14.90;;;;;;;14.57;45.50;101747.66;5022442;28;20018;-56
2022/11/27 01:47:59;;;;;;;26.75;13.27;;;;;;;14.58;44.95;101748.50;5012409;28;20116;-56
2022/11/27 01:50:38;;;;;;;23.48;11.68;;;;;;;14.56;44.91;101743.31;5021820;28;20025;-57
2022/11/27 01:53:18;;;;;;;17.30;9.00;;;;;;;14.40;44.91;101751.81;5017196;28;20648;-57
2022/11/27 01:55:54;;;;;;;13.32;8.05;;;;;;;14.28;45.04;101759.69;5023054;28;20542;-57
2022/11/27 01:58:24;;;;;;;11.60;7.40;;;;;;;14.19;45.26;101767.13;5012153;28;20029;-57
2022/11/27 02:00:51;;;;;;;15.68;8.13;;;;;;;14.10;45.57;101767.53;5012036;28;20116;-57
2022/11/27 02:03:17;;;;;;;11.20;7.40;;;;;;;13.98;45.69;101772.72;5031138;28;20021;-57
2022/11/27 02:05:43;;;;;;;11.73;6.95;;;;;;;13.89;45.74;101774.78;5031811;28;20112;-57
2022/11/27 02:08:13;;;;;;;9.20;6.32;;;;;;;13.81;45.80;101766.91;5036414;28;20091;-57
2022/11/27 02:10:47;;;;;;;10.45;6.93;;;;;;;13.71;45.91;101772.69;5051700;28;20025;-57
2022/11/27 02:13:22;;;;;;;14.13;6.28;;;;;;;13.63;46.04;101769.34;5051753;28;20057;-57
2022/11/27 02:16:08;;;;;;;9.07;6.35;;;;;;;13.54;46.20;101768.69;5051788;28;20025;-57
2022/11/27 02:18:55;;;;;;;9.88;6.00;;;;;;;13.46;46.37;101772.41;5051463;28;20123;-57
2022/11/27 02:21:36;;;;;;;9.15;6.45;;;;;;;13.42;46.31;101764.94;5051824;28;20063;-57
2022/11/27 02:24:30;;;;;;;13.05;6.35;;;;;;;13.46;46.61;101769.72;5051591;28;20108;-56
2022/11/27 02:27:34;;;;;;;10.20;6.28;;;;;;;13.35;46.50;101778.38;5050977;28;20163;-57
2022/11/27 02:30:02;;;;;;;9.75;6.50;;;;;;;13.39;46.96;101781.50;5037232;28;20412;-56
2022/11/27 02:32:28;;;;;;;8.45;5.72;;;;;;;13.46;46.59;101788.56;5031463;28;20037;-55
2022/11/27 02:35:09;;;;;;;12.38;7.32;;;;;;;13.13;47.35;101799.13;5011712;28;20088;-55
2022/11/27 02:37:46;;;;;;;9.75;6.72;;;;;;;13.23;47.51;101800.66;5023655;28;20079;-56
2022/11/27 02:40:35;;;;;;;12.23;8.10;;;;;;;13.07;47.95;101805.31;5017466;28;20068;-56
2022/11/27 02:43:38;;;;;;;11.48;7.60;;;;;;;12.78;48.68;101806.38;5030061;28;20033;-56
2022/11/27 02:46:07;;;;;;;13.85;8.35;;;;;;;12.65;48.78;101808.97;4970309;28;20074;-56
2022/11/27 02:48:42;;;;;;;15.05;8.32;;;;;;;12.50;49.51;101810.94;5020237;28;20382;-56
2022/11/27 02:51:11;;;;;;;11.60;7.68;;;;;;;12.45;49.86;101813.38;5026285;28;20498;-56
2022/11/27 02:53:48;;;;;;;11.88;8.18;;;;;;;12.35;49.98;101806.47;5011322;28;20038;-56
2022/11/27 02:56:19;;;;;;;16.00;9.70;;;;;;;12.27;50.11;101803.94;5011604;28;20092;-56
2022/11/27 02:58:49;;;;;;;14.57;8.63;;;;;;;11.92;51.17;101812.88;5014356;28;20031;-56
2022/11/27 03:01:20;;;;;;;10.90;6.43;;;;;;;11.96;50.62;101816.84;5031064;28;20065;-56
2022/11/27 03:03:52;;;;;;;14.82;8.00;;;;;;;12.07;50.17;101824.41;5031103;28;20065;-56
2022/11/27 03:06:32;;;;;;;10.80;6.80;;;;;;;12.03;50.02;101817.75;5011520;28;20100;-56
2022/11/27 03:09:31;;;;;;;12.00;8.05;;;;;;;12.02;50.50;101819.59;5011142;28;20478;-56
2022/11/27 03:11:57;;;;;;;15.32;7.65;;;;;;;11.87;50.74;101818.81;5011177;28;20037;-56
2022/11/27 03:14:24;;;;;;;13.38;7.82;;;;;;;11.78;50.80;101826.16;5011262;28;20033;-56
2022/11/27 03:17:24;;;;;;;11.38;6.45;;;;;;;11.80;50.58;101834.81;5023039;28;20021;-56
2022/11/27 03:20:18;;;;;;;11.48;6.90;;;;;;;11.79;50.73;101826.97;5028598;28;20041;-56
2022/11/27 03:22:44;;;;;;;11.00;6.43;;;;;;;11.62;51.35;101827.19;5034448;28;20025;-56
2022/11/27 03:25:11;;;;;;;13.40;6.20;;;;;;;11.57;51.60;101824.25;5034525;28;20053;-56
2022/11/27 03:27:45;;;;;;;10.15;6.50;;;;;;;11.58;51.63;101825.06;5031211;28;20044;-56
2022/11/27 03:30:13;;;;;;;11.23;6.35;;;;;;;11.54;51.88;101834.50;5014994;28;20018;-56
2022/11/27 03:32:39;;;;;;;12.57;6.30;;;;;;;11.48;51.84;101830.72;5017122;28;20046;-56
2022/11/27 03:35:08;;;;;;;9.30;6.03;;;;;;;11.46;52.40;101826.59;5053233;28;20060;-56
2022/11/27 03:37:35;;;;;;;10.05;6.25;;;;;;;11.46;52.48;101835.47;5034133;28;20512;-56
2022/11/27 03:40:03;;;;;;;9.80;5.95;;;;;;;11.45;52.32;101830.28;5034361;28;20032;-56
2022/11/27 03:42:49;;;;;;;13.00;6.00;;;;;;;11.33;52.90;101829.94;5034191;28;20056;-56
2022/11/27 03:45:29;;;;;;;10.82;6.90;;;;;;;11.31;53.44;101826.59;5034113;28;20025;-56
2022/11/27 03:48:16;;;;;;;14.63;7.78;;;;;;;11.43;54.49;101832.31;5032922;28;20136;-56
2022/11/27 03:50:55;;;;;;;13.05;8.43;;;;;;;11.11;55.22;101834.38;5034013;28;20040;-56
2022/11/27 03:53:36;;;;;;;11.23;8.02;;;;;;;11.18;54.97;101837.97;5034457;28;20033;-56
2022/11/27 03:56:20;;;;;;;16.92;8.25;;;;;;;11.11;55.44;101842.44;5034899;28;20040;-56
2022/11/27 03:59:22;;;;;;;11.63;7.68;;;;;;;11.01;55.65;101842.69;5053868;28;20035;-56
2022/11/27 04:01:48;;;;;;;13.75;8.18;;;;;;;10.99;55.62;101849.25;5045446;28;20139;-56
2022/11/27 04:04:14;;;;;;;12.35;9.02;;;;;;;10.99;57.05;101855.47;5033980;28;20100;-56
2022/11/27 04:06:41;;;;;;;12.27;8.20;;;;;;;10.96;56.88;101854.97;5033180;28;20025;-56
2022/11/27 04:09:07;;;;;;;12.02;8.27;;;;;;;10.98;56.62;101861.81;5033618;28;20113;-56
2022/11/27 04:11:33;;;;;;;10.45;7.70;;;;;;;10.71;57.62;101865.91;5036577;28;20504;-56
2022/11/27 04:13:59;;;;;;;21.63;8.90;;;;;;;10.99;56.78;101862.63;5053838;28;20033;-56
2022/11/27 04:16:26;;;;;;;11.02;7.97;;;;;;;10.92;57.27;101870.56;5051798;28;20029;-56
2022/11/27 04:18:52;;;;;;;13.77;8.40;;;;;;;10.76;57.03;101862.69;5053059;28;20051;-56
2022/11/27 04:21:18;;;;;;;12.05;8.75;;;;;;;10.58;57.81;101863.03;5051410;28;20108;-56
2022/11/27 04:23:44;;;;;;;9.70;8.48;;;;;;;10.64;57.71;101854.28;5053800;28;20030;-55
2022/11/27 04:26:11;;;;;;;11.23;7.88;;;;;;;10.86;57.41;101851.72;5051531;28;20044;-55
2022/11/27 04:28:37;;;;;;;12.63;8.93;;;;;;;10.87;57.14;101845.34;5030132;28;20064;-55
2022/11/27 04:31:03;;;;;;;12.63;8.38;;;;;;;10.62;57.27;101850.97;5043220;28;20029;-56
2022/11/27 04:33:29;;;;;;;13.35;8.32;;;;;;;10.57;57.37;101848.00;5052740;28;20108;-56
2022/11/27 04:35:56;;;;;;;12.27;8.15;;;;;;;10.64;57.10;101858.81;5050542;28;20028;-55
2022/11/27 04:38:23;;;;;;;13.00;8.40;;;;;;;10.67;56.94;101848.56;5053004;28;20021;-56
2022/11/27 04:40:52;;;;;;;10.38;8.23;;;;;;;10.49;57.46;101845.38;5046480;28;20037;-55
2022/11/27 04:43:18;;;;;;;11.63;8.13;;;;;;;10.29;57.75;101826.31;5047082;28;20099;-56
2022/11/27 04:45:44;;;;;;;11.98;8.73;;;;;;;10.18;59.04;101843.59;5033119;28;20113;-55
2022/11/27 04:48:11;;;;;;;12.23;9.50;;;;;;;10.37;58.25;101836.13;5033439;28;20934;-56
2022/11/27 04:50:37;;;;;;;11.38;8.45;;;;;;;10.58;57.73;101836.28;5052831;28;20078;-56
2022/11/27 04:53:03;;;;;;;15.95;7.97;;;;;;;10.21;58.46;101839.72;5050792;28;20029;-55
2022/11/27 04:55:29;;;;;;;9.50;7.93;;;;;;;10.15;58.67;101835.91;5052869;28;20029;-56
2022/11/27 04:57:55;;;;;;;10.27;7.13;;;;;;;10.15;58.60;101837.75;5035426;28;20025;-56
2022/11/27 05:00:22;;;;;;;12.85;8.55;;;;;;;10.05;58.63;101851.41;5032709;28;20108;-56
2022/11/27 05:02:48;;;;;;;11.30;8.02;;;;;;;10.18;58.25;101843.59;5032646;28;20462;-55
2022/11/27 05:05:16;;;;;;;11.65;7.85;;;;;;;9.95;58.78;101848.13;5032445;28;20033;-56
2022/11/27 05:07:42;;;;;;;12.70;9.10;;;;;;;10.05;58.71;101844.19;5032296;28;20104;-56
2022/11/27 05:10:09;;;;;;;13.20;8.32;;;;;;;9.83;59.37;101841.50;5032610;28;20026;-56
2022/11/27 05:12:35;;;;;;;13.38;8.15;;;;;;;10.03;59.01;101834.69;5032607;28;20017;-56
2022/11/27 05:15:01;;;;;;;13.63;8.98;;;;;;;10.02;58.70;101839.19;5036270;28;20032;-56
2022/11/27 05:17:27;;;;;;;10.82;8.50;;;;;;;10.01;58.93;101837.53;5039099;28;20037;-55
2022/11/27 05:19:53;;;;;;;11.48;7.80;;;;;;;10.04;58.99;101833.66;5032040;28;20032;-56
2022/11/27 05:22:20;;;;;;;9.75;7.53;;;;;;;10.16;58.76;101829.59;5032620;28;20057;-55
2022/11/27 05:24:46;;;;;;;10.75;7.32;;;;;;;9.95;59.47;101829.41;5032264;28;20448;-56
2022/11/27 05:27:12;;;;;;;9.95;6.97;;;;;;;9.98;59.47;101821.84;5022578;28;20061;-54
2022/11/27 05:29:39;;;;;;;12.38;6.82;;;;;;;9.77;59.95;101830.50;5031462;28;20033;-56
2022/11/27 05:32:05;;;;;;;8.70;6.97;;;;;;;9.50;60.32;101833.66;5036402;28;20423;-56
2022/11/27 05:34:31;;;;;;;8.70;6.40;;;;;;;9.40;60.79;101822.34;5052273;28;20508;-56
2022/11/27 05:36:57;;;;;;;10.57;6.93;;;;;;;9.40;60.85;101828.53;5051635;28;20104;-56
2022/11/27 05:39:24;;;;;;;11.20;7.03;;;;;;;9.30;60.89;101827.06;5051605;28;20029;-56
2022/11/27 05:41:50;;;;;;;9.07;6.55;;;;;;;9.29;61.00;101841.44;5051762;28;20043;-56
2022/11/27 05:44:16;;;;;;;8.93;7.20;;;;;;;9.15;61.29;101834.97;5051142;28;20024;-56
2022/11/27 05:46:43;;;;;;;9.45;7.00;;;;;;;9.11;61.08;101837.16;5041494;28;20030;-54
2022/11/27 05:49:13;;;;;;;9.55;7.00;;;;;;;9.05;61.34;101858.38;5031498;28;20025;-54
2022/11/27 05:51:40;;;;;;;10.80;7.50;;;;;;;9.05;61.39;101845.00;5032085;28;20037;-56
2022/11/27 05:54:07;;;;;;;9.40;6.85;;;;;;;9.13;60.96;101851.16;5031688;28;20048;-56
2022/11/27 05:56:33;;;;;;;10.48;7.38;;;;;;;9.04;61.34;101854.84;5031916;28;20022;-56
2022/11/27 05:58:59;;;;;;;7.90;7.10;;;;;;;8.94;61.43;101855.06;5031346;28;20029;-56
2022/11/27 06:01:26;;;;;;;9.70;6.45;;;;;;;8.89;61.49;101844.06;5031430;28;20030;-55
2022/11/27 06:03:52;;;;;;;7.45;5.38;;;;;;;8.85;61.64;101845.41;5031584;28;20025;-55
2022/11/27 06:06:19;;;;;;;9.43;5.50;;;;;;;8.83;61.24;101842.09;5037405;28;20113;-55
2022/11/27 06:08:46;;;;;;;9.48;5.25;;;;;;;8.82;61.11;101836.88;5050047;28;20109;-55
2022/11/27 06:11:19;;;;;;;12.95;5.40;;;;;;;9.09;60.08;101827.66;5051301;28;20025;-55
2022/11/27 06:13:47;;;;;;;7.47;4.13;;;;;;;8.99;59.79;101820.69;5051668;28;20029;-55
2022/11/27 06:16:22;;;;;;;7.00;4.55;;;;;;;8.92;59.79;101826.84;5051249;28;20025;-55
2022/11/27 06:18:49;;;;;;;6.53;5.00;;;;;;;8.83;60.11;101831.41;5051290;28;20033;-55
2022/11/27 06:21:16;;;;;;;8.93;4.70;;;;;;;8.80;59.95;101831.72;5050956;28;20025;-55
2022/11/27 06:23:43;;;;;;;8.48;4.60;;;;;;;8.71;59.93;101833.56;5037427;28;20068;-55
2022/11/27 06:26:27;;;;;;;5.95;3.88;;;;;;;8.70;59.78;101839.09;5030599;28;20429;-55
2022/11/27 06:28:55;;;;;;;9.57;5.90;;;;;;;8.57;60.90;101839.59;5011294;28;20026;-55
2022/11/27 06:31:27;;;;;;;6.72;5.68;;;;;;;8.61;60.49;101845.44;5011493;28;20034;-55
2022/11/27 06:33:55;;;;;;;10.00;5.60;;;;;;;8.59;60.71;101840.25;5011637;28;20034;-55
2022/11/27 06:36:23;;;;;;;9.55;6.60;;;;;;;8.58;60.64;101843.94;5016174;28;20031;-55
2022/11/27 06:38:49;;;;;;;10.05;5.90;;;;;;;8.57;60.89;101838.78;5039400;28;20021;-55
2022/11/27 06:41:18;;;;;;;10.18;6.50;;;;;;;8.65;60.84;101844.91;5048720;28;20033;-55
2022/11/27 06:43:44;;;;;;;7.47;5.88;;;;;;;8.54;60.82;101842.59;5011343;28;20032;-56
2022/11/27 06:46:14;;;;;;;8.85;5.97;;;;;;;8.55;60.89;101843.44;5011219;28;20044;-56
2022/11/27 06:48:42;;;;;;;9.32;5.47;;;;;;;8.47;61.01;101852.28;5050633;28;20055;-56
2022/11/27 06:51:11;;;;;;;9.65;5.13;;;;;;;8.39;61.09;101834.47;5051097;28;20099;-56
2022/11/27 06:53:38;;;;;;;6.55;5.00;;;;;;;8.41;61.13;101832.44;5048975;28;20037;-55
2022/11/27 06:56:06;;;;;;;6.45;4.30;;;;;;;8.36;61.16;101831.28;5053754;28;20111;-56
2022/11/27 06:58:32;;;;;;;13.80;4.90;;;;;;;8.20;61.75;101829.41;5051679;28;20215;-55
2022/11/27 07:01:00;;;;;;;5.88;4.40;;;;;;;8.27;61.52;101825.06;5054789;28;20121;-56
2022/11/27 07:03:26;;;;;;;5.72;4.40;;;;;;;8.29;61.27;101827.59;5052477;28;20100;-55
2022/11/27 07:05:53;;;;;;;8.93;4.30;;;;;;;8.26;61.32;101830.56;5054783;28;20028;-55
2022/11/27 07:08:21;;;;;;;7.78;4.20;;;;;;;8.28;60.99;101831.25;5051293;28;20455;-55
2022/11/27 07:10:47;;;;;;;5.85;3.72;;;;;;;8.34;60.86;101834.09;5054598;28;20037;-55
2022/11/27 07:13:13;;;;;;;7.25;4.30;;;;;;;8.35;60.82;101821.59;5051501;28;20024;-55
2022/11/27 07:15:39;;;;;;;7.38;4.30;;;;;;;8.36;60.85;101825.94;5054648;28;20160;-56
2022/11/27 07:18:06;;;;;;;5.65;3.63;;;;;;;8.34;60.64;101830.59;5051799;28;20029;-55
2022/11/27 07:20:32;;;;;;;5.25;3.92;;;;;;;8.32;60.44;101833.41;5052011;28;20040;-55
2022/11/27 07:22:58;;;;;;;4.72;3.78;;;;;;;8.34;60.41;101835.94;5054787;28;20021;-55
2022/11/27 07:25:24;;;;;;;6.50;4.55;;;;;;;8.34;60.31;101830.59;5052230;28;20036;-55
2022/11/27 07:27:51;;;;;;;4.63;4.05;;;;;;;8.29;60.09;101830.25;5025140;28;20026;-55
2022/11/27 07:30:17;;;;;;;7.45;3.70;;;;;;;8.30;60.35;101837.25;5030009;28;20024;-56
2022/11/27 07:32:43;;;;;;;6.75;3.58;;;;;;;8.22;60.48;101838.09;5053119;28;20378;-55
2022/11/27 07:35:09;;;;;;;6.80;3.60;;;;;;;7.96;61.05;101832.06;5052218;28;20104;-55
2022/11/27 07:37:36;;;;;;;6.10;3.53;;;;;;;8.13;60.43;101829.25;5053025;28;20028;-56
2022/11/27 07:40:02;;;;;;;4.53;3.17;;;;;;;8.12;60.38;101832.09;5052222;28;20036;-55
2022/11/27 07:42:28;;;;;;;3.78;2.97;;;;;;;8.18;60.12;101834.91;5054360;28;20044;-56
2022/11/27 07:44:55;;;;;;;4.38;3.28;;;;;;;8.24;59.98;101843.25;5051812;28;20025;-54
2022/11/27 07:47:21;;;;;;;4.75;3.45;;;;;;;8.22;59.83;101838.09;5054049;28;20454;-55
2022/11/27 07:49:47;;;;;;;3.80;3.30;;;;;;;8.24;59.92;101845.91;5052110;28;20040;-55
2022/11/27 07:52:13;;;;;;;5.78;4.07;;;;;;;8.18;59.97;101842.91;5054271;28;20151;-56
2022/11/27 07:54:39;;;;;;;4.68;3.58;;;;;;;8.06;60.68;101852.25;5052592;28;20688;-55
2022/11/27 07:57:05;;;;;;;6.32;4.05;;;;;;;8.16;60.35;101844.06;5052923;28;20029;-56
2022/11/27 07:59:32;;;;;;;4.88;3.90;;;;;;;8.10;60.19;101848.22;5054292;28;20551;-57
2022/11/27 08:01:58;;;;;;;5.60;4.00;;;;;;;8.03;60.50;101844.56;5051826;28;20055;-55
2022/11/27 08:04:24;;;;;;;5.85;4.25;;;;;;;8.02;60.68;101853.56;5054025;28;20074;-56
2022/11/27 08:06:50;;;;;;;9.32;4.68;;;;;;;8.00;60.52;101849.41;5051015;28;20029;-56
2022/11/27 08:09:17;;;;;;;4.63;4.13;;;;;;;8.06;60.45;101840.75;5054070;28;20029;-56
2022/11/27 08:11:43;;;;;;;6.53;4.32;;;;;;;8.08;60.25;101841.41;5051557;28;20040;-55
2022/11/27 08:14:11;;;;;;;6.68;4.38;;;;;;;8.01;60.69;101846.56;5051764;28;20025;-56
2022/11/27 08:16:38;;;;;;;5.65;4.57;;;;;;;7.97;60.74;101829.22;5053538;28;20488;-56
2022/11/27 08:19:04;;;;;;;7.15;4.78;;;;;;;7.96;60.85;101826.72;5049390;28;20037;-56
2022/11/27 08:21:31;;;;;;;5.80;4.53;;;;;;;7.95;61.15;101833.91;5032271;28;20593;-56
2022/11/27 08:23:57;;;;;;;6.63;4.35;;;;;;;7.93;61.29;101833.22;5031092;28;20485;-55
2022/11/27 08:26:26;;;;;;;7.55;5.00;;;;;;;8.00;60.88;101834.25;5033512;28;20025;-54
2022/11/27 08:28:52;;;;;;;9.30;4.22;;;;;;;8.01;60.85;101825.25;5033411;28;20029;-54
2022/11/27 08:31:22;;;;;;;6.53;4.93;;;;;;;7.93;61.09;101834.03;5049519;28;20028;-55
2022/11/27 08:33:48;;;;;;;6.85;5.10;;;;;;;7.92;61.34;101831.53;5053515;28;20041;-54
2022/11/27 08:36:15;;;;;;;6.97;5.03;;;;;;;7.96;61.04;101822.22;5035262;28;20021;-55
2022/11/27 08:38:41;;;;;;;6.78;5.40;;;;;;;7.88;61.31;101831.06;5025084;28;20038;-55
2022/11/27 08:41:08;;;;;;;5.93;4.40;;;;;;;7.58;62.18;101832.47;5041559;28;20235;-57
2022/11/27 08:43:35;;;;;;;4.63;3.90;;;;;;;7.58;62.19;101820.97;5042302;28;20485;-56
2022/11/27 08:46:06;;;;;;;4.65;3.83;;;;;;;7.40;62.76;101821.94;5033748;28;20033;-56
2022/11/27 08:48:32;;;;;;;5.47;4.03;;;;;;;7.66;61.72;101816.53;5027603;28;20064;-57
2022/11/27 08:50:58;;;;;;;6.35;3.53;;;;;;;7.64;61.68;101820.31;5025196;28;20044;-56
2022/11/27 08:53:24;;;;;;;4.93;3.30;;;;;;;7.80;61.25;101822.19;5017511;28;20113;-56
2022/11/27 08:55:50;;;;;;;4.47;3.55;;;;;;;7.76;61.20;101820.84;5032624;28;20033;-56
2022/11/27 08:58:17;;;;;;;6.28;3.72;;;;;;;7.75;61.03;101824.53;5032861;28;20025;-56
2022/11/27 09:00:43;;;;;;;4.95;3.60;;;;;;;7.70;60.94;101826.84;5032815;28;20029;-56
2022/11/27 09:03:11;;;;;;;6.32;3.55;;;;;;;7.68;60.91;101827.00;5033383;28;20025;-56
2022/11/27 09:05:42;;;;;;;7.35;3.58;;;;;;;7.66;60.87;101835.19;5033155;28;20031;-56
2022/11/27 09:08:08;;;;;;;4.15;3.28;;;;;;;7.63;60.89;101830.16;5033064;28;20025;-56
2022/11/27 09:10:36;;;;;;;4.18;3.60;;;;;;;7.63;60.98;101827.50;5033122;28;20458;-56
2022/11/27 09:13:02;;;;;;;4.55;3.67;;;;;;;7.60;60.91;101833.13;5037208;28;20115;-57
2022/11/27 09:15:28;;;;;;;5.88;4.40;;;;;;;7.55;61.09;101823.97;5039176;28;20033;-55
2022/11/27 09:17:54;;;;;;;5.22;4.03;;;;;;;7.46;62.03;101825.78;5032409;28;20025;-56
2022/11/27 09:20:21;;;;;;;3.90;3.50;;;;;;;7.48;62.00;101829.09;5032800;28;20032;-56
2022/11/27 09:22:47;;;;;;;6.20;4.13;;;;;;;7.51;62.09;101831.47;5032502;28;20025;-55
2022/11/27 09:25:13;;;;;;;6.45;4.50;;;;;;;7.59;62.13;101828.81;5032689;28;20021;-56
2022/11/27 09:27:39;;;;;;;5.95;4.47;;;;;;;7.52;62.64;101826.97;5030682;28;20104;-55
2022/11/27 09:30:07;;;;;;;6.47;4.40;;;;;;;7.56;63.03;101815.00;5021743;28;20104;-56
2022/11/27 09:32:33;;;;;;;6.47;4.13;;;;;;;7.51;63.26;101822.63;5051960;28;20056;-55
2022/11/27 09:35:00;;;;;;;8.60;4.85;;;;;;;7.52;63.12;101825.13;5027041;28;20411;-56
2022/11/27 09:37:26;;;;;;;5.82;3.83;;;;;;;7.51;63.16;101819.97;5012276;28;20025;-56
2022/11/27 09:39:52;;;;;;;8.45;4.07;;;;;;;7.55;63.21;101824.81;5012653;28;20120;-56
2022/11/27 09:42:56;;;;;;;5.38;4.25;;;;;;;7.53;63.10;101821.47;5012958;28;20030;-56
2022/11/27 09:45:24;;;;;;;6.40;3.80;;;;;;;7.50;63.04;101821.81;5006401;28;20120;-56
2022/11/27 09:47:58;;;;;;;4.90;3.88;;;;;;;7.47;62.88;101815.97;5033882;28;20053;-57
2022/11/27 09:50:37;;;;;;;4.60;4.10;;;;;;;7.44;62.88;101822.44;5051712;28;20466;-56
2022/11/27 09:53:19;;;;;;;6.13;3.78;;;;;;;7.38;62.55;101818.59;5032325;28;20477;-55
2022/11/27 09:55:48;;;;;;;5.45;3.65;;;;;;;7.36;62.45;101820.56;5031991;28;20033;-55
2022/11/27 09:58:22;;;;;;;4.95;3.92;;;;;;;7.35;62.54;101820.75;5030069;28;20029;-56
2022/11/27 10:00:49;;;;;;;6.13;3.72;;;;;;;7.28;62.66;101822.38;5031839;28;20029;-56
2022/11/27 10:03:20;;;;;;;5.32;3.47;;;;;;;7.24;63.09;101815.72;5031914;28;20129;-55
2022/11/27 10:05:51;;;;;;;5.63;3.35;;;;;;;7.22;62.86;101815.00;5032403;28;20026;-56
2022/11/27 10:08:36;;;;;;;6.18;3.60;;;;;;;7.28;63.19;101819.72;5031575;28;20039;-55
2022/11/27 10:11:29;;;;;;;6.28;3.83;;;;;;;7.24;63.10;101815.72;5020815;28;20084;-55
2022/11/27 10:14:08;;;;;;;5.22;3.38;;;;;;;7.18;63.21;101816.34;5013060;28;20037;-55
2022/11/27 10:17:23;;;;;;;5.63;4.05;;;;;;;7.14;63.21;101815.81;5012451;28;20026;-56
2022/11/27 10:19:58;;;;;;;6.47;3.95;;;;;;;7.10;63.09;101820.63;5006710;28;20506;-56
2022/11/27 10:22:47;;;;;;;4.32;3.90;;;;;;;7.09;63.47;101813.63;5028790;28;20037;-57
2022/11/27 10:25:27;;;;;;;6.03;4.10;;;;;;;7.12;63.68;101801.84;5012210;28;20026;-56
2022/11/27 10:28:02;;;;;;;7.22;4.20;;;;;;;7.15;63.79;101806.84;5028416;28;20052;-56
2022/11/27 10:30:32;;;;;;;7.18;4.50;;;;;;;7.15;64.11;101817.50;5044692;28;20033;-56
2022/11/27 10:33:01;;;;;;;5.72;3.97;;;;;;;7.08;64.14;101816.47;5045140;28;20056;-56
2022/11/27 10:35:31;;;;;;;5.95;4.72;;;;;;;7.03;64.05;101819.59;5041827;28;20060;-57
2022/11/27 10:38:10;;;;;;;7.28;4.25;;;;;;;7.06;63.90;101815.81;5042352;28;20374;-56
2022/11/27 10:40:57;;;;;;;7.68;4.95;;;;;;;7.24;63.92;101819.19;5031225;28;20052;-55
2022/11/27 10:43:25;;;;;;;7.50;5.95;;;;;;;6.88;65.32;101823.84;5031769;28;20049;-56
2022/11/27 10:45:56;;;;;;;7.75;5.88;;;;;;;6.90;65.04;101823.69;5030488;28;20026;-56
2022/11/27 10:48:23;;;;;;;8.68;5.50;;;;;;;6.84;65.27;101835.81;5026303;28;20025;-56
2022/11/27 10:50:50;;;;;;;8.10;5.75;;;;;;;6.90;65.06;101835.16;5030823;28;20125;-57
2022/11/27 10:53:28;;;;;;;9.10;6.20;;;;;;;6.91;65.81;101839.50;5031476;28;20060;-56
2022/11/27 10:56:19;;;;;;;10.32;6.72;;;;;;;6.86;66.17;101839.13;5040441;28;20025;-56
2022/11/27 10:58:58;;;;;;;7.40;5.70;;;;;;;6.70;66.38;101842.53;5031468;28;20022;-56
2022/11/27 11:01:28;;;;;;;9.77;5.50;;;;;;;6.64;66.57;101840.50;5031763;28;20184;-56
2022/11/27 11:04:08;;;;;;;7.88;5.85;;;;;;;6.68;66.05;101846.34;5031458;28;20021;-56
2022/11/27 11:06:41;;;;;;;8.48;6.07;;;;;;;6.52;66.32;101847.06;5031292;28;20028;-57
2022/11/27 11:09:17;;;;;;;5.82;5.10;;;;;;;6.48;66.77;101843.84;5031410;28;20039;-56
2022/11/27 11:11:44;;;;;;;7.15;5.55;;;;;;;6.63;66.44;101848.63;5033190;28;20033;-56
2022/11/27 11:14:25;;;;;;;8.40;6.22;;;;;;;6.53;66.77;101851.38;5051180;28;20503;-56
2022/11/27 11:16:53;;;;;;;8.30;5.55;;;;;;;6.54;66.49;101845.91;5051041;28;20029;-56
2022/11/27 11:19:35;;;;;;;17.35;6.30;;;;;;;6.57;66.66;101844.78;5051065;28;20021;-56
2022/11/27 11:22:12;;;;;;;14.63;7.10;;;;;;;6.49;66.93;101853.50;5051200;28;20131;-55
2022/11/27 11:24:43;;;;;;;8.65;5.90;;;;;;;6.42;67.01;101844.47;5051315;28;20477;-56
2022/11/27 11:27:42;;;;;;;7.63;6.28;;;;;;;6.39;66.84;101838.66;5050840;28;20079;-56
2022/11/27 11:30:20;;;;;;;8.77;5.80;;;;;;;6.32;67.09;101843.72;5038705;28;20485;-55
2022/11/27 11:32:48;;;;;;;6.72;5.05;;;;;;;6.25;66.84;101838.19;5051088;28;20077;-56
2022/11/27 11:35:36;;;;;;;7.63;5.43;;;;;;;6.26;66.96;101834.53;5051279;28;20405;-56
2022/11/27 11:38:16;;;;;;;7.70;5.78;;;;;;;6.39;66.46;101831.50;5050804;28;20029;-56
2022/11/27 11:40:45;;;;;;;7.78;5.00;;;;;;;6.21;66.88;101838.66;5050892;28;20036;-56
2022/11/27 11:43:31;;;;;;;12.05;5.82;;;;;;;6.22;66.73;101840.31;5054018;28;20029;-56